Time;durP1;ratioP1;P1;durP2;ratioP2;P2;SDS_P1;SDS_P2;PMS_P1;PMS_P2;Temp;Humidity;BMP_temperature;BMP_pressure;BME280_temperature;BME280_humidity;BME280_pressure;Samples;Min_cycle;Max_cycle;Signal;HPM_P1;HPM_P2
2022/01/25 00:33:34;;;;;;;39.20;23.23;;;;;;;;;;5098718;28;20576;-86
2022/01/25 00:36:02;;;;;;;39.70;22.48;;;;;;;;;;5085969;28;20134;-85
2022/01/25 00:38:27;;;;;;;41.00;23.55;;;;;;;;;;5096312;28;20031;-86
2022/01/25 00:40:53;;;;;;;44.08;23.13;;;;;;;;;;5079903;28;20024;-85
2022/01/25 00:43:23;;;;;;;40.42;23.52;;;;;;;;;;5084626;28;20543;-85
2022/01/25 00:45:50;;;;;;;43.55;24.17;;;;;;;;;;5078921;28;20096;-82
2022/01/25 00:48:29;;;;;;;42.10;23.80;;;;;;;;;;5082075;28;20496;-85
2022/01/25 00:51:04;;;;;;;40.97;22.45;;;;;;;;;;5085150;28;20105;-86
2022/01/25 00:56:13;;;;;;;40.90;23.90;;;;;;;;;;5103490;28;20038;-85
2022/01/25 00:58:38;;;;;;;42.17;24.58;;;;;;;;;;5086765;28;20020;-85
2022/01/25 01:01:03;;;;;;;40.75;23.52;;;;;;;;;;5084561;28;20024;-85
2022/01/25 01:03:29;;;;;;;40.80;23.52;;;;;;;;;;5084966;28;20016;-86
2022/01/25 01:05:54;;;;;;;40.67;23.60;;;;;;;;;;5084351;28;20068;-83
2022/01/25 01:08:19;;;;;;;39.10;22.77;;;;;;;;;;5101715;28;20098;-85
2022/01/25 01:10:45;;;;;;;39.67;23.92;;;;;;;;;;5080286;28;20031;-85
2022/01/25 01:15:47;;;;;;;45.92;25.85;;;;;;;;;;5100989;28;20103;-85
2022/01/25 01:29:19;;;;;;;43.13;24.02;;;;;;;;;;5097044;28;20034;-84
2022/01/25 01:32:46;;;;;;;44.33;24.35;;;;;;;;;;5073072;28;20557;-86
2022/01/25 01:35:01;;;;;;;43.55;24.52;;;;;;;;;;5088230;28;20036;-85
2022/01/25 01:40:41;;;;;;;41.35;22.67;;;;;;;;;;5098279;28;20035;-85
2022/01/25 01:48:09;;;;;;;43.47;24.10;;;;;;;;;;5099858;28;20042;-85
2022/01/25 01:50:37;;;;;;;38.92;22.55;;;;;;;;;;5093243;28;20136;-85
2022/01/25 01:53:05;;;;;;;45.80;25.10;;;;;;;;;;5087297;28;20020;-85
2022/01/25 01:55:31;;;;;;;40.70;23.48;;;;;;;;;;5082778;28;20070;-85
2022/01/25 01:57:57;;;;;;;44.72;24.55;;;;;;;;;;5081149;28;20481;-85
2022/01/25 02:00:28;;;;;;;45.30;26.25;;;;;;;;;;5084117;28;20031;-83
2022/01/25 02:02:53;;;;;;;44.33;24.60;;;;;;;;;;5086029;28;20127;-82
2022/01/25 02:05:19;;;;;;;47.30;25.70;;;;;;;;;;5081514;28;20115;-85
2022/01/25 02:07:44;;;;;;;44.10;25.30;;;;;;;;;;5094519;28;20972;-85
2022/01/25 02:10:10;;;;;;;43.78;24.63;;;;;;;;;;5079933;28;20019;-83
2022/01/25 02:12:36;;;;;;;48.38;25.92;;;;;;;;;;5086119;28;20039;-83
2022/01/25 02:15:03;;;;;;;45.15;24.80;;;;;;;;;;5090820;28;20042;-85
2022/01/25 02:23:14;;;;;;;47.20;24.95;;;;;;;;;;5100459;28;20455;-85
2022/01/25 02:25:39;;;;;;;48.53;26.05;;;;;;;;;;5082422;28;20024;-86
2022/01/25 02:28:05;;;;;;;50.03;27.15;;;;;;;;;;5083993;28;20027;-83
2022/01/25 02:30:30;;;;;;;47.95;27.00;;;;;;;;;;5090199;28;20027;-83
2022/01/25 02:32:56;;;;;;;47.50;25.73;;;;;;;;;;5102792;28;20023;-85
2022/01/25 02:35:21;;;;;;;46.10;25.00;;;;;;;;;;5078660;28;20040;-85
2022/01/25 02:37:47;;;;;;;46.50;26.35;;;;;;;;;;5082317;28;20393;-85
2022/01/25 02:40:12;;;;;;;48.38;25.50;;;;;;;;;;5086803;28;20448;-82
2022/01/25 02:42:37;;;;;;;48.72;26.10;;;;;;;;;;5083981;28;20505;-85
2022/01/25 02:45:03;;;;;;;48.17;26.25;;;;;;;;;;5080990;28;20023;-85
2022/01/25 02:50:12;;;;;;;48.15;26.50;;;;;;;;;;5103811;27;20111;-85
2022/01/25 02:52:38;;;;;;;47.83;26.35;;;;;;;;;;5078112;27;20056;-83
2022/01/25 02:55:04;;;;;;;48.22;25.92;;;;;;;;;;5081062;28;20024;-85
2022/01/25 02:57:29;;;;;;;49.33;26.48;;;;;;;;;;5090085;27;20104;-85
2022/01/25 02:59:55;;;;;;;49.00;26.38;;;;;;;;;;5102243;27;20498;-86
2022/01/25 03:02:20;;;;;;;50.72;26.77;;;;;;;;;;5083118;28;20035;-85
2022/01/25 03:04:46;;;;;;;54.40;28.52;;;;;;;;;;5088214;28;20023;-85
2022/01/25 03:07:11;;;;;;;53.60;28.35;;;;;;;;;;5088664;28;20029;-85
2022/01/25 03:09:39;;;;;;;55.90;29.10;;;;;;;;;;5088704;28;20051;-86
2022/01/25 03:12:07;;;;;;;51.47;26.85;;;;;;;;;;5091309;28;20031;-82
2022/01/25 03:14:35;;;;;;;50.13;26.10;;;;;;;;;;5081547;28;20069;-85
2022/01/25 03:19:42;;;;;;;49.55;26.55;;;;;;;;;;5098029;28;20032;-86
2022/01/25 03:22:57;;;;;;;50.10;27.58;;;;;;;;;;5088938;28;20114;-85
2022/01/25 03:24:59;;;;;;;54.70;28.73;;;;;;;;;;5085649;28;20125;-85
2022/01/25 03:27:25;;;;;;;54.67;28.67;;;;;;;;;;5085876;28;20524;-85
2022/01/25 03:29:50;;;;;;;53.40;29.10;;;;;;;;;;5085425;28;20107;-85
2022/01/25 03:32:15;;;;;;;54.65;28.02;;;;;;;;;;5084759;28;20555;-83
2022/01/25 03:34:41;;;;;;;55.88;28.92;;;;;;;;;;5108382;28;20026;-85
2022/01/25 03:37:06;;;;;;;56.10;30.30;;;;;;;;;;5081039;28;20040;-85
2022/01/25 03:39:31;;;;;;;50.15;26.98;;;;;;;;;;5086695;28;20040;-85
2022/01/25 03:41:57;;;;;;;56.75;29.38;;;;;;;;;;5100569;28;20049;-85
2022/01/25 03:44:22;;;;;;;56.60;28.95;;;;;;;;;;5086345;28;20095;-83
2022/01/25 03:51:57;;;;;;;54.00;28.60;;;;;;;;;;5100482;28;20120;-85
2022/01/25 03:54:23;;;;;;;57.80;29.35;;;;;;;;;;5084859;28;20027;-82
2022/01/25 03:56:48;;;;;;;58.88;29.40;;;;;;;;;;5079601;28;20028;-85
2022/01/25 03:59:14;;;;;;;53.03;28.83;;;;;;;;;;5087427;28;20444;-85
2022/01/25 04:01:39;;;;;;;57.00;29.33;;;;;;;;;;5085784;28;20252;-85
2022/01/25 04:04:12;;;;;;;52.50;26.80;;;;;;;;;;5085932;28;20485;-85
2022/01/25 04:06:39;;;;;;;53.95;27.10;;;;;;;;;;5083744;27;20051;-85
2022/01/25 04:09:07;;;;;;;50.17;26.50;;;;;;;;;;5087042;28;20423;-85
2022/01/25 04:11:34;;;;;;;55.10;27.95;;;;;;;;;;5087593;28;20054;-83
2022/01/25 04:13:59;;;;;;;58.55;29.38;;;;;;;;;;5086803;28;20034;-83
2022/01/25 04:16:33;;;;;;;54.28;28.40;;;;;;;;;;5083320;28;20035;-85
2022/01/25 04:19:08;;;;;;;60.92;28.48;;;;;;;;;;5085572;28;20561;-85
2022/01/25 04:26:48;;;;;;;60.75;30.95;;;;;;;;;;5101523;28;20508;-85
2022/01/25 04:29:14;;;;;;;54.97;27.30;;;;;;;;;;5079489;28;20031;-85
2022/01/25 04:31:39;;;;;;;56.63;29.40;;;;;;;;;;5082331;28;20114;-83
2022/01/25 04:34:12;;;;;;;53.40;27.50;;;;;;;;;;5088979;28;20023;-86
2022/01/25 04:48:55;;;;;;;54.05;27.77;;;;;;;;;;5098931;27;20043;-85
2022/01/25 04:50:40;;;;;;;54.13;27.85;;;;;;;;;;5095329;28;20050;-85
2022/01/25 04:55:54;;;;;;;52.80;27.35;;;;;;;;;;5093789;28;20043;-82
2022/01/25 04:58:28;;;;;;;51.17;27.20;;;;;;;;;;5079850;28;20028;-85
2022/01/25 05:00:54;;;;;;;58.15;29.00;;;;;;;;;;5097750;28;20015;-84
2022/01/25 05:03:27;;;;;;;52.78;27.60;;;;;;;;;;5083255;28;20027;-85
2022/01/25 05:06:07;;;;;;;51.85;26.70;;;;;;;;;;5099419;28;20024;-85
2022/01/25 05:08:40;;;;;;;55.50;27.50;;;;;;;;;;5081648;28;20393;-85
2022/01/25 05:11:11;;;;;;;48.70;25.63;;;;;;;;;;5093515;27;20052;-85
2022/01/25 05:13:50;;;;;;;54.95;27.48;;;;;;;;;;5077653;28;20110;-85
2022/01/25 05:16:33;;;;;;;51.95;26.48;;;;;;;;;;5095751;27;20114;-85
2022/01/25 05:24:12;;;;;;;52.58;26.60;;;;;;;;;;5094051;28;20074;-82
2022/01/25 05:26:38;;;;;;;47.88;24.40;;;;;;;;;;5079483;28;20489;-85
2022/01/25 05:29:03;;;;;;;51.28;26.38;;;;;;;;;;5102952;28;20058;-85
2022/01/25 05:31:29;;;;;;;57.75;27.95;;;;;;;;;;5077362;28;20444;-85
2022/01/25 05:33:54;;;;;;;48.95;26.92;;;;;;;;;;5087047;28;20488;-85
2022/01/25 05:36:20;;;;;;;51.47;27.05;;;;;;;;;;5101241;28;20075;-85
2022/01/25 05:38:47;;;;;;;53.22;26.85;;;;;;;;;;5079260;28;20110;-85
2022/01/25 05:41:13;;;;;;;51.22;26.15;;;;;;;;;;5079414;28;20147;-86
2022/01/25 05:47:04;;;;;;;50.35;26.17;;;;;;;;;;5062636;28;20081;-86
2022/01/25 05:49:30;;;;;;;47.78;24.70;;;;;;;;;;5097413;28;20016;-86
2022/01/25 05:51:56;;;;;;;54.00;25.70;;;;;;;;;;5081058;28;20032;-85
2022/01/25 05:54:21;;;;;;;52.78;26.63;;;;;;;;;;5083119;28;20089;-85
2022/01/25 05:56:46;;;;;;;55.00;27.77;;;;;;;;;;5079267;28;21625;-85
2022/01/25 05:59:12;;;;;;;57.13;27.75;;;;;;;;;;5092445;28;20482;-85
2022/01/25 06:01:37;;;;;;;57.42;28.88;;;;;;;;;;5076953;28;20089;-85
2022/01/25 06:04:03;;;;;;;58.47;29.65;;;;;;;;;;5083154;28;20035;-85
2022/01/25 06:06:29;;;;;;;53.53;27.95;;;;;;;;;;5079883;28;20036;-85
2022/01/25 06:08:59;;;;;;;53.13;26.25;;;;;;;;;;5080945;28;20032;-82
2022/01/25 06:11:25;;;;;;;54.03;27.42;;;;;;;;;;5075911;28;20373;-83
2022/01/25 06:13:51;;;;;;;56.58;27.83;;;;;;;;;;5076044;28;20024;-85
2022/01/25 06:16:17;;;;;;;59.67;28.77;;;;;;;;;;5079201;28;20030;-83
2022/01/25 06:18:42;;;;;;;57.20;28.90;;;;;;;;;;5077270;28;20517;-82
2022/01/25 06:21:08;;;;;;;56.80;27.48;;;;;;;;;;5087040;28;20024;-85
2022/01/25 06:23:33;;;;;;;55.65;28.25;;;;;;;;;;5097572;28;20039;-85
2022/01/25 06:25:58;;;;;;;52.17;26.27;;;;;;;;;;5085480;28;20134;-85
2022/01/25 06:28:24;;;;;;;52.95;26.70;;;;;;;;;;5095833;28;20082;-85
2022/01/25 06:30:49;;;;;;;54.85;28.52;;;;;;;;;;5079072;28;20406;-83
2022/01/25 06:33:15;;;;;;;55.30;27.45;;;;;;;;;;5079606;28;20024;-85
2022/01/25 06:35:40;;;;;;;51.38;26.00;;;;;;;;;;5077981;28;20043;-82
2022/01/25 06:38:06;;;;;;;53.42;27.95;;;;;;;;;;5076888;28;20069;-83
2022/01/25 06:40:34;;;;;;;56.90;27.10;;;;;;;;;;5073923;28;20061;-85
2022/01/25 06:42:59;;;;;;;56.97;28.70;;;;;;;;;;5075220;28;20024;-85
2022/01/25 06:45:26;;;;;;;56.50;27.70;;;;;;;;;;5076435;28;20036;-84
2022/01/25 06:47:52;;;;;;;57.33;29.08;;;;;;;;;;5079246;28;20035;-82
2022/01/25 06:50:19;;;;;;;56.35;27.17;;;;;;;;;;5079393;28;20077;-86
2022/01/25 06:52:45;;;;;;;52.72;26.50;;;;;;;;;;5076706;28;20028;-85
2022/01/25 06:55:13;;;;;;;57.00;27.75;;;;;;;;;;5076502;28;20031;-86
2022/01/25 06:57:39;;;;;;;56.05;26.55;;;;;;;;;;5071148;28;20120;-85
2022/01/25 07:00:09;;;;;;;59.20;28.85;;;;;;;;;;5080960;28;20039;-86
2022/01/25 07:02:34;;;;;;;54.50;27.92;;;;;;;;;;5099819;28;20024;-86
2022/01/25 07:05:00;;;;;;;53.75;27.42;;;;;;;;;;5077392;28;20050;-83
2022/01/25 07:07:26;;;;;;;54.58;27.60;;;;;;;;;;5082187;28;20370;-83
2022/01/25 07:09:51;;;;;;;58.50;28.73;;;;;;;;;;5082567;28;20024;-85
2022/01/25 07:12:17;;;;;;;56.20;29.13;;;;;;;;;;5075581;28;20016;-87
2022/01/25 07:14:42;;;;;;;49.92;25.60;;;;;;;;;;5076266;28;20081;-83
2022/01/25 07:17:08;;;;;;;56.78;27.65;;;;;;;;;;5075970;28;20030;-86
2022/01/25 07:19:33;;;;;;;57.00;29.25;;;;;;;;;;5077893;28;20058;-84
2022/01/25 07:21:58;;;;;;;56.20;27.75;;;;;;;;;;5075216;28;20046;-84
2022/01/25 07:24:23;;;;;;;52.78;27.05;;;;;;;;;;5077448;28;20052;-84
2022/01/25 07:26:50;;;;;;;55.83;26.13;;;;;;;;;;5080453;28;21748;-84
2022/01/25 07:29:16;;;;;;;51.92;26.83;;;;;;;;;;5101964;28;20027;-84
2022/01/25 07:31:42;;;;;;;53.45;26.30;;;;;;;;;;5084383;28;20089;-85
2022/01/25 07:34:08;;;;;;;51.47;26.08;;;;;;;;;;5081447;28;20032;-85
2022/01/25 07:36:36;;;;;;;52.33;26.35;;;;;;;;;;5084987;28;20048;-84
2022/01/25 07:39:02;;;;;;;54.55;26.42;;;;;;;;;;5102513;28;20477;-85
2022/01/25 07:41:28;;;;;;;52.78;26.48;;;;;;;;;;5105996;28;20030;-85
2022/01/25 07:44:03;;;;;;;59.25;29.55;;;;;;;;;;5082381;28;20509;-86
2022/01/25 07:46:32;;;;;;;52.08;26.58;;;;;;;;;;5088515;28;20020;-85
2022/01/25 07:48:59;;;;;;;50.65;25.65;;;;;;;;;;5109467;28;20036;-84
2022/01/25 07:51:28;;;;;;;53.97;26.70;;;;;;;;;;5091660;28;20016;-85
2022/01/25 07:54:01;;;;;;;51.35;26.00;;;;;;;;;;5096292;28;20046;-81
2022/01/25 07:56:29;;;;;;;54.78;27.25;;;;;;;;;;5087950;28;20070;-83
2022/01/25 07:58:56;;;;;;;60.22;27.98;;;;;;;;;;5089828;28;20081;-86
2022/01/25 08:01:40;;;;;;;52.92;25.35;;;;;;;;;;5075126;28;20502;-84
2022/01/25 08:04:08;;;;;;;54.78;27.48;;;;;;;;;;5089387;28;20023;-84
2022/01/25 08:06:33;;;;;;;53.55;27.77;;;;;;;;;;5083787;28;20152;-87
2022/01/25 08:09:06;;;;;;;51.28;26.48;;;;;;;;;;5085715;28;20129;-87
2022/01/25 08:11:35;;;;;;;54.15;26.90;;;;;;;;;;5090310;28;20062;-86
2022/01/25 08:14:18;;;;;;;54.45;27.05;;;;;;;;;;5084784;28;20043;-81
2022/01/25 08:16:48;;;;;;;55.27;26.97;;;;;;;;;;5083776;28;20036;-83
2022/01/25 08:19:15;;;;;;;55.92;27.70;;;;;;;;;;5088104;28;20022;-84
2022/01/25 08:21:41;;;;;;;52.47;25.80;;;;;;;;;;5084848;28;20020;-84
2022/01/25 08:24:11;;;;;;;57.70;28.38;;;;;;;;;;5102457;28;20055;-82
2022/01/25 08:26:37;;;;;;;48.88;24.88;;;;;;;;;;5084945;28;20060;-87
2022/01/25 08:29:04;;;;;;;55.40;27.10;;;;;;;;;;5103069;27;20042;-82
2022/01/25 08:31:30;;;;;;;50.67;25.70;;;;;;;;;;5086073;28;20535;-82
2022/01/25 08:33:55;;;;;;;51.75;25.92;;;;;;;;;;5090654;28;20023;-81
2022/01/25 08:36:21;;;;;;;53.83;26.45;;;;;;;;;;5071304;28;20075;-87
2022/01/25 08:38:47;;;;;;;52.42;25.52;;;;;;;;;;5090051;28;20129;-81
2022/01/25 08:41:14;;;;;;;55.25;25.85;;;;;;;;;;5086308;28;20031;-87
2022/01/25 08:43:39;;;;;;;51.05;25.35;;;;;;;;;;5086621;28;20020;-81
2022/01/25 08:46:05;;;;;;;49.95;25.50;;;;;;;;;;5087283;28;20028;-85
2022/01/25 08:48:31;;;;;;;49.17;24.98;;;;;;;;;;5110235;28;20042;-85
2022/01/25 08:50:58;;;;;;;55.10;26.75;;;;;;;;;;5083763;28;20034;-86
2022/01/25 08:53:24;;;;;;;49.90;25.42;;;;;;;;;;5089216;28;20145;-86
2022/01/25 08:55:49;;;;;;;52.08;26.17;;;;;;;;;;5089113;28;20034;-85
2022/01/25 08:58:14;;;;;;;58.50;28.45;;;;;;;;;;5090548;28;20024;-84
2022/01/25 09:00:40;;;;;;;49.45;26.05;;;;;;;;;;5089534;28;20135;-86
2022/01/25 09:03:05;;;;;;;53.75;27.08;;;;;;;;;;5087924;28;20038;-81
2022/01/25 09:05:31;;;;;;;59.28;29.33;;;;;;;;;;5109299;28;20059;-85
2022/01/25 09:07:58;;;;;;;53.42;25.33;;;;;;;;;;5086195;28;20028;-86
2022/01/25 09:10:25;;;;;;;57.42;27.33;;;;;;;;;;5088839;28;20104;-88
2022/01/25 09:12:51;;;;;;;53.22;26.92;;;;;;;;;;5091546;28;20072;-81
2022/01/25 09:15:17;;;;;;;52.53;26.60;;;;;;;;;;5092346;28;20036;-82
2022/01/25 09:17:42;;;;;;;54.08;26.70;;;;;;;;;;5085574;28;20028;-81
2022/01/25 09:20:08;;;;;;;53.25;25.83;;;;;;;;;;5092368;28;20024;-87
2022/01/25 09:22:34;;;;;;;52.75;25.88;;;;;;;;;;5108301;28;20024;-88
2022/01/25 09:24:59;;;;;;;50.83;24.73;;;;;;;;;;5107879;28;20024;-82
2022/01/25 09:27:25;;;;;;;53.45;26.88;;;;;;;;;;5070994;28;20059;-87
2022/01/25 09:29:50;;;;;;;54.70;26.77;;;;;;;;;;5090471;28;20020;-86
2022/01/25 09:32:16;;;;;;;55.13;27.63;;;;;;;;;;5086584;28;20454;-87
2022/01/25 09:34:42;;;;;;;56.83;27.02;;;;;;;;;;5093584;28;20077;-85
2022/01/25 09:37:08;;;;;;;57.83;28.55;;;;;;;;;;5090777;28;20443;-86
2022/01/25 09:39:33;;;;;;;55.55;27.23;;;;;;;;;;5089410;28;20031;-85
2022/01/25 09:42:00;;;;;;;55.80;26.40;;;;;;;;;;5094207;28;20110;-85
2022/01/25 09:44:26;;;;;;;54.25;26.95;;;;;;;;;;5080943;28;20101;-82
2022/01/25 09:46:56;;;;;;;61.78;29.10;;;;;;;;;;5099348;28;20625;-81
2022/01/25 09:49:22;;;;;;;59.33;28.50;;;;;;;;;;5089851;28;20028;-85
2022/01/25 09:51:48;;;;;;;55.60;27.73;;;;;;;;;;5083395;28;20016;-81
2022/01/25 09:54:14;;;;;;;52.85;27.10;;;;;;;;;;5083652;28;20039;-86
2022/01/25 09:56:40;;;;;;;53.00;26.20;;;;;;;;;;5077687;28;20024;-85
2022/01/25 09:59:05;;;;;;;58.40;27.83;;;;;;;;;;5086350;28;20952;-85
2022/01/25 10:01:32;;;;;;;50.75;24.90;;;;;;;;;;5085839;28;20028;-88
2022/01/25 10:04:00;;;;;;;50.50;25.15;;;;;;;;;;5104174;28;20030;-83
2022/01/25 10:06:31;;;;;;;60.08;27.83;;;;;;;;;;5087588;28;20167;-87
2022/01/25 10:08:58;;;;;;;58.92;28.08;;;;;;;;;;5085123;28;20032;-85
2022/01/25 10:11:25;;;;;;;56.75;25.85;;;;;;;;;;5086076;28;20024;-82
2022/01/25 10:13:55;;;;;;;55.90;26.85;;;;;;;;;;5088767;28;20138;-83
2022/01/25 10:16:35;;;;;;;53.03;26.63;;;;;;;;;;5086247;28;20027;-87
2022/01/25 10:19:06;;;;;;;51.97;25.75;;;;;;;;;;5102819;28;20031;-81
2022/01/25 10:21:34;;;;;;;61.35;28.42;;;;;;;;;;5081535;28;20023;-83
2022/01/25 10:24:01;;;;;;;54.63;26.77;;;;;;;;;;5086516;28;20054;-85
2022/01/25 10:26:33;;;;;;;60.03;27.92;;;;;;;;;;5088407;28;20027;-87
2022/01/25 10:28:59;;;;;;;60.53;28.80;;;;;;;;;;5084925;28;20057;-87
2022/01/25 10:31:33;;;;;;;59.85;27.33;;;;;;;;;;5089221;28;20735;-85
2022/01/25 10:33:58;;;;;;;57.78;27.42;;;;;;;;;;5105493;28;20035;-86
2022/01/25 10:36:24;;;;;;;50.63;24.00;;;;;;;;;;5085558;28;20563;-81
2022/01/25 10:38:51;;;;;;;56.78;26.77;;;;;;;;;;5082634;28;21280;-85
2022/01/25 10:41:19;;;;;;;59.78;27.08;;;;;;;;;;5111742;27;20034;-86
2022/01/25 10:43:47;;;;;;;62.72;28.40;;;;;;;;;;5102544;27;20028;-85
2022/01/25 10:46:25;;;;;;;61.97;28.92;;;;;;;;;;5105672;28;20031;-86
2022/01/25 10:49:01;;;;;;;59.45;27.13;;;;;;;;;;5106360;28;20028;-85
2022/01/25 10:51:39;;;;;;;55.05;26.35;;;;;;;;;;5082079;28;20398;-86
2022/01/25 10:54:13;;;;;;;61.72;28.45;;;;;;;;;;5091335;28;20023;-85
2022/01/25 10:56:43;;;;;;;57.80;27.42;;;;;;;;;;5106769;28;20521;-85
2022/01/25 10:59:12;;;;;;;60.70;28.27;;;;;;;;;;5109033;28;20104;-87
2022/01/25 11:01:45;;;;;;;58.08;27.52;;;;;;;;;;5091822;28;20165;-85
2022/01/25 11:04:13;;;;;;;63.85;27.52;;;;;;;;;;5086177;28;20354;-87
2022/01/25 11:06:40;;;;;;;60.25;28.35;;;;;;;;;;5089430;28;20032;-86
2022/01/25 11:09:08;;;;;;;59.78;28.45;;;;;;;;;;5107591;28;20077;-85
2022/01/25 11:11:41;;;;;;;57.38;26.48;;;;;;;;;;5085666;28;20023;-87
2022/01/25 11:16:53;;;;;;;54.03;24.58;;;;;;;;;;5103382;28;19923;-86
2022/01/25 11:19:20;;;;;;;56.47;26.83;;;;;;;;;;5089097;28;20032;-85
2022/01/25 11:21:46;;;;;;;60.40;28.15;;;;;;;;;;5080633;28;20486;-85
2022/01/25 11:24:14;;;;;;;54.78;25.60;;;;;;;;;;5086663;28;20504;-86
2022/01/25 11:26:44;;;;;;;57.53;26.67;;;;;;;;;;5088978;28;20023;-82
2022/01/25 11:29:10;;;;;;;62.05;27.70;;;;;;;;;;5087539;28;20040;-86
2022/01/25 11:31:39;;;;;;;55.10;26.13;;;;;;;;;;5099998;28;20034;-86
2022/01/25 11:34:08;;;;;;;59.80;26.98;;;;;;;;;;5102674;28;20146;-82
2022/01/25 11:36:50;;;;;;;56.22;25.80;;;;;;;;;;5089411;28;20047;-85
2022/01/25 11:39:19;;;;;;;56.45;26.77;;;;;;;;;;5087091;28;20024;-86
2022/01/25 11:41:45;;;;;;;56.55;26.65;;;;;;;;;;5085926;28;20024;-87
2022/01/25 11:44:21;;;;;;;60.60;25.77;;;;;;;;;;5100371;28;20043;-85
2022/01/25 11:46:50;;;;;;;58.25;26.92;;;;;;;;;;5084368;28;20081;-87
2022/01/25 11:49:19;;;;;;;62.78;27.67;;;;;;;;;;5082741;28;20020;-83
2022/01/25 11:52:04;;;;;;;56.65;27.10;;;;;;;;;;5090519;28;20017;-86
2022/01/25 11:54:30;;;;;;;64.78;28.08;;;;;;;;;;5076733;28;20020;-86
2022/01/25 11:57:20;;;;;;;61.58;26.88;;;;;;;;;;5100612;28;20383;-85
2022/01/25 11:59:57;;;;;;;62.83;26.45;;;;;;;;;;5090131;28;20072;-85
2022/01/25 12:02:45;;;;;;;62.78;27.02;;;;;;;;;;5083205;28;20039;-81
2022/01/25 12:05:13;;;;;;;61.25;26.83;;;;;;;;;;5087997;28;20531;-83
2022/01/25 12:08:06;;;;;;;54.88;25.80;;;;;;;;;;5079547;28;20070;-87
2022/01/25 12:10:34;;;;;;;59.90;26.50;;;;;;;;;;5085524;28;20027;-86
2022/01/25 12:13:17;;;;;;;59.63;26.60;;;;;;;;;;5088227;28;20302;-82
2022/01/25 12:15:44;;;;;;;65.55;27.15;;;;;;;;;;5083877;28;20031;-86
2022/01/25 12:18:48;;;;;;;68.28;29.33;;;;;;;;;;5080408;28;20028;-87
2022/01/25 12:21:13;;;;;;;64.93;27.30;;;;;;;;;;5082014;28;20525;-87
2022/01/25 12:23:46;;;;;;;57.63;25.65;;;;;;;;;;5083385;28;20063;-84
2022/01/25 12:26:18;;;;;;;63.13;26.55;;;;;;;;;;5099886;28;20563;-87
2022/01/25 12:28:46;;;;;;;68.45;28.30;;;;;;;;;;5080404;28;20081;-87
2022/01/25 12:31:16;;;;;;;64.10;26.90;;;;;;;;;;5085197;28;20028;-86
2022/01/25 12:33:44;;;;;;;65.18;27.77;;;;;;;;;;5088312;28;20122;-86
2022/01/25 12:36:10;;;;;;;63.22;26.55;;;;;;;;;;5089963;28;20485;-86
2022/01/25 12:38:49;;;;;;;65.97;27.40;;;;;;;;;;5086556;28;20115;-85
2022/01/25 12:41:20;;;;;;;61.10;25.73;;;;;;;;;;5082296;28;20035;-86
2022/01/25 12:43:53;;;;;;;58.20;25.65;;;;;;;;;;5089914;28;20030;-87
2022/01/25 12:46:32;;;;;;;60.60;26.60;;;;;;;;;;5089450;28;20034;-88
2022/01/25 12:49:01;;;;;;;61.22;25.63;;;;;;;;;;5093291;28;20447;-86
2022/01/25 12:51:33;;;;;;;61.13;26.38;;;;;;;;;;5081566;28;20112;-81
2022/01/25 12:54:01;;;;;;;63.97;26.13;;;;;;;;;;5086523;28;20039;-84
2022/01/25 12:56:32;;;;;;;65.95;26.92;;;;;;;;;;5085654;28;20035;-81
2022/01/25 12:59:02;;;;;;;66.13;28.48;;;;;;;;;;5089703;28;20023;-81
2022/01/25 13:01:28;;;;;;;63.95;26.48;;;;;;;;;;5083089;28;20047;-85
2022/01/25 13:03:57;;;;;;;66.57;28.23;;;;;;;;;;5106198;28;20020;-85
2022/01/25 13:06:26;;;;;;;60.92;26.15;;;;;;;;;;5091650;28;20043;-86
2022/01/25 13:09:13;;;;;;;59.58;26.40;;;;;;;;;;5089511;28;20078;-87
2022/01/25 13:16:54;;;;;;;55.67;24.58;;;;;;;;;;5103031;28;20089;-83
2022/01/25 13:19:26;;;;;;;61.90;26.73;;;;;;;;;;5085066;28;20028;-85
2022/01/25 13:21:55;;;;;;;65.35;28.08;;;;;;;;;;5087844;28;20023;-85
2022/01/25 13:24:25;;;;;;;68.43;28.00;;;;;;;;;;5095044;28;20370;-81
2022/01/25 13:27:19;;;;;;;63.25;26.50;;;;;;;;;;5092873;28;20024;-85
2022/01/25 13:32:47;;;;;;;63.03;25.60;;;;;;;;;;5108201;28;20031;-86
2022/01/25 13:35:27;;;;;;;61.72;26.45;;;;;;;;;;5088516;28;20402;-86
2022/01/25 13:38:04;;;;;;;64.75;26.20;;;;;;;;;;5083201;28;20038;-85
2022/01/25 13:40:45;;;;;;;55.65;24.33;;;;;;;;;;5089947;28;20024;-86
2022/01/25 13:45:59;;;;;;;61.70;25.02;;;;;;;;;;5096043;28;20051;-88
2022/01/25 13:48:29;;;;;;;59.92;27.15;;;;;;;;;;5083856;28;20051;-85
2022/01/25 13:51:00;;;;;;;65.57;28.00;;;;;;;;;;5085912;28;20024;-85
2022/01/25 13:53:28;;;;;;;62.03;25.42;;;;;;;;;;5086702;28;20057;-87
2022/01/25 13:55:58;;;;;;;58.58;24.55;;;;;;;;;;5079052;28;20474;-87
2022/01/25 13:58:29;;;;;;;54.80;24.23;;;;;;;;;;5087250;28;20063;-85
2022/01/25 14:00:56;;;;;;;56.97;24.27;;;;;;;;;;5077997;28;20047;-85
2022/01/25 14:03:34;;;;;;;60.17;25.23;;;;;;;;;;5098711;28;20028;-82
2022/01/25 14:06:01;;;;;;;57.33;23.92;;;;;;;;;;5084672;28;20027;-82
2022/01/25 14:08:33;;;;;;;69.65;25.88;;;;;;;;;;5083109;28;20035;-85
2022/01/25 14:11:02;;;;;;;63.10;25.10;;;;;;;;;;5080787;28;20039;-85
2022/01/25 14:24:53;;;;;;;65.72;26.40;;;;;;;;;;5070128;28;20065;-82
2022/01/25 14:27:30;;;;;;;68.47;27.85;;;;;;;;;;5081635;28;20512;-86
2022/01/25 14:29:56;;;;;;;61.28;25.55;;;;;;;;;;5083404;28;20126;-83
2022/01/25 14:32:29;;;;;;;63.80;27.13;;;;;;;;;;5077139;28;20042;-85
2022/01/25 14:35:09;;;;;;;60.58;24.48;;;;;;;;;;5077526;28;20028;-85
2022/01/25 14:37:40;;;;;;;63.58;26.70;;;;;;;;;;5080831;28;20656;-84
2022/01/25 14:40:12;;;;;;;66.05;26.85;;;;;;;;;;5081382;28;20536;-85
2022/01/25 14:42:39;;;;;;;62.85;24.88;;;;;;;;;;5084056;28;20530;-85
2022/01/25 14:45:08;;;;;;;59.70;25.02;;;;;;;;;;5079960;28;20027;-86
2022/01/25 14:47:38;;;;;;;66.55;28.10;;;;;;;;;;5087278;28;20106;-86
2022/01/25 14:50:14;;;;;;;64.55;26.98;;;;;;;;;;5093597;28;20511;-86
2022/01/25 14:52:40;;;;;;;64.68;26.17;;;;;;;;;;5081290;28;20132;-86
2022/01/25 14:55:19;;;;;;;63.17;26.25;;;;;;;;;;5075089;28;20122;-86
2022/01/25 14:58:03;;;;;;;62.03;26.02;;;;;;;;;;5084889;28;20102;-85
2022/01/25 15:00:28;;;;;;;58.40;24.77;;;;;;;;;;5075308;28;20056;-83
2022/01/25 15:02:53;;;;;;;64.00;25.52;;;;;;;;;;5094963;28;20074;-86
2022/01/25 15:05:19;;;;;;;62.90;27.25;;;;;;;;;;5080652;28;20435;-86
2022/01/25 15:07:44;;;;;;;59.08;25.00;;;;;;;;;;5092646;28;20038;-85
2022/01/25 15:10:12;;;;;;;66.20;26.58;;;;;;;;;;5080170;28;20541;-85
2022/01/25 15:12:44;;;;;;;67.20;27.23;;;;;;;;;;5090914;28;20035;-85
2022/01/25 15:15:14;;;;;;;60.90;25.63;;;;;;;;;;5075447;28;20047;-86
2022/01/25 15:17:40;;;;;;;57.97;23.80;;;;;;;;;;5076132;28;20080;-86
2022/01/25 15:20:09;;;;;;;63.90;25.88;;;;;;;;;;5080321;28;20031;-86
2022/01/25 15:22:34;;;;;;;61.70;25.15;;;;;;;;;;5077375;28;20024;-85
2022/01/25 15:25:01;;;;;;;59.92;24.70;;;;;;;;;;5072087;28;20333;-82
2022/01/25 15:27:29;;;;;;;62.35;25.50;;;;;;;;;;5081161;28;20035;-84
2022/01/25 15:30:02;;;;;;;63.67;26.75;;;;;;;;;;5079142;28;20384;-85
2022/01/25 15:32:27;;;;;;;55.15;24.00;;;;;;;;;;5081309;28;20042;-84
2022/01/25 15:34:53;;;;;;;57.55;23.98;;;;;;;;;;5078986;28;20020;-87
2022/01/25 15:37:20;;;;;;;59.28;24.83;;;;;;;;;;5078647;28;20086;-85
2022/01/25 15:39:46;;;;;;;61.33;27.08;;;;;;;;;;5078874;28;20493;-85
2022/01/25 15:42:18;;;;;;;61.70;26.70;;;;;;;;;;5081538;28;20024;-86
2022/01/25 15:44:48;;;;;;;61.78;25.73;;;;;;;;;;5101484;27;20070;-81
2022/01/25 15:47:19;;;;;;;64.10;26.10;;;;;;;;;;5099243;28;20059;-87
2022/01/25 15:49:48;;;;;;;64.63;26.73;;;;;;;;;;5080560;28;20160;-84
2022/01/25 15:52:17;;;;;;;61.78;26.08;;;;;;;;;;5081108;28;20028;-84
2022/01/25 15:54:48;;;;;;;60.83;25.42;;;;;;;;;;5084530;28;21999;-89
2022/01/25 15:57:20;;;;;;;64.18;26.42;;;;;;;;;;5084650;28;20040;-83
2022/01/25 15:59:48;;;;;;;63.15;26.77;;;;;;;;;;5084053;28;20058;-88
2022/01/25 16:02:20;;;;;;;57.10;24.08;;;;;;;;;;5092381;28;20096;-85
2022/01/25 16:04:49;;;;;;;59.17;25.98;;;;;;;;;;5084939;28;20039;-87
2022/01/25 16:07:21;;;;;;;59.50;25.45;;;;;;;;;;5081946;28;20115;-89
2022/01/25 16:09:55;;;;;;;62.40;26.10;;;;;;;;;;5088909;28;20625;-82
2022/01/25 16:12:20;;;;;;;59.65;25.20;;;;;;;;;;5085734;28;20535;-87
2022/01/25 16:14:52;;;;;;;60.90;26.25;;;;;;;;;;5079938;28;20027;-86
2022/01/25 16:17:21;;;;;;;61.47;26.00;;;;;;;;;;5081724;28;20118;-90
2022/01/25 16:19:52;;;;;;;59.25;26.30;;;;;;;;;;5099604;28;20032;-87
2022/01/25 16:22:21;;;;;;;58.70;25.55;;;;;;;;;;5084448;28;20035;-86
2022/01/25 16:24:52;;;;;;;56.17;23.70;;;;;;;;;;5084854;28;20035;-89
2022/01/25 16:27:24;;;;;;;59.53;25.50;;;;;;;;;;5080221;28;20023;-85
2022/01/25 16:29:55;;;;;;;59.60;25.63;;;;;;;;;;5084197;28;20397;-89
2022/01/25 16:32:25;;;;;;;62.38;26.15;;;;;;;;;;5081232;28;20027;-81